sensor_id;sensor_type;location;lat;lon;timestamp;temperature;humidity
14614;DHT22;7393;51.446;6.800;2023-03-20T00:00:16;10.30;1.00
14614;DHT22;7393;51.446;6.800;2023-03-20T00:02:45;10.30;1.00
14614;DHT22;7393;51.446;6.800;2023-03-20T00:05:16;10.30;1.00
14614;DHT22;7393;51.446;6.800;2023-03-20T00:07:44;10.30;1.00
14614;DHT22;7393;51.446;6.800;2023-03-20T00:10:12;10.40;1.00
14614;DHT22;7393;51.446;6.800;2023-03-20T00:12:39;10.40;1.00
14614;DHT22;7393;51.446;6.800;2023-03-20T00:15:21;10.40;1.00
14614;DHT22;7393;51.446;6.800;2023-03-20T00:17:50;10.40;1.00
14614;DHT22;7393;51.446;6.800;2023-03-20T00:20:18;10.40;1.00
14614;DHT22;7393;51.446;6.800;2023-03-20T00:22:45;10.40;99.90
14614;DHT22;7393;51.446;6.800;2023-03-20T00:25:13;10.40;99.90
14614;DHT22;7393;51.446;6.800;2023-03-20T00:27:42;10.40;23.50
14614;DHT22;7393;51.446;6.800;2023-03-20T00:30:19;10.40;99.90
14614;DHT22;7393;51.446;6.800;2023-03-20T00:32:47;10.40;99.90
14614;DHT22;7393;51.446;6.800;2023-03-20T00:35:24;10.30;99.90
14614;DHT22;7393;51.446;6.800;2023-03-20T00:37:52;10.30;1.00
14614;DHT22;7393;51.446;6.800;2023-03-20T00:40:20;10.20;1.00
14614;DHT22;7393;51.446;6.800;2023-03-20T00:42:49;10.20;1.00
14614;DHT22;7393;51.446;6.800;2023-03-20T00:45:18;10.20;1.00
14614;DHT22;7393;51.446;6.800;2023-03-20T00:47:48;10.20;41.60
14614;DHT22;7393;51.446;6.800;2023-03-20T00:50:18;10.10;99.90
14614;DHT22;7393;51.446;6.800;2023-03-20T00:52:48;10.10;99.90
14614;DHT22;7393;51.446;6.800;2023-03-20T00:55:15;10.10;1.00
14614;DHT22;7393;51.446;6.800;2023-03-20T00:57:45;10.10;99.90
14614;DHT22;7393;51.446;6.800;2023-03-20T01:00:25;10.10;1.00
14614;DHT22;7393;51.446;6.800;2023-03-20T01:02:56;10.00;1.00
14614;DHT22;7393;51.446;6.800;2023-03-20T01:05:24;10.00;1.00
14614;DHT22;7393;51.446;6.800;2023-03-20T01:07:53;10.00;23.30
14614;DHT22;7393;51.446;6.800;2023-03-20T01:10:20;10.10;99.90
14614;DHT22;7393;51.446;6.800;2023-03-20T01:12:48;10.00;99.90
14614;DHT22;7393;51.446;6.800;2023-03-20T01:15:18;10.00;1.00
14614;DHT22;7393;51.446;6.800;2023-03-20T01:17:46;10.00;99.90
14614;DHT22;7393;51.446;6.800;2023-03-20T01:20:16;10.00;99.90
14614;DHT22;7393;51.446;6.800;2023-03-20T01:22:43;10.00;99.90
14614;DHT22;7393;51.446;6.800;2023-03-20T01:25:12;9.90;1.00
14614;DHT22;7393;51.446;6.800;2023-03-20T01:27:39;9.90;99.90
14614;DHT22;7393;51.446;6.800;2023-03-20T01:30:16;9.80;1.00
14614;DHT22;7393;51.446;6.800;2023-03-20T01:32:43;9.80;1.00
14614;DHT22;7393;51.446;6.800;2023-03-20T01:35:12;9.80;1.00
14614;DHT22;7393;51.446;6.800;2023-03-20T01:37:40;9.80;1.00
14614;DHT22;7393;51.446;6.800;2023-03-20T01:40:15;9.80;1.00
14614;DHT22;7393;51.446;6.800;2023-03-20T01:42:45;9.80;1.00
14614;DHT22;7393;51.446;6.800;2023-03-20T01:45:16;9.80;1.00
14614;DHT22;7393;51.446;6.800;2023-03-20T01:47:44;9.80;1.00
14614;DHT22;7393;51.446;6.800;2023-03-20T01:50:24;9.80;95.20
14614;DHT22;7393;51.446;6.800;2023-03-20T01:52:54;9.80;83.90
14614;DHT22;7393;51.446;6.800;2023-03-20T01:55:24;9.80;1.00
14614;DHT22;7393;51.446;6.800;2023-03-20T01:57:52;9.80;1.00
14614;DHT22;7393;51.446;6.800;2023-03-20T02:00:20;9.80;1.00
14614;DHT22;7393;51.446;6.800;2023-03-20T02:02:48;9.80;1.00
14614;DHT22;7393;51.446;6.800;2023-03-20T02:05:19;9.80;1.00
14614;DHT22;7393;51.446;6.800;2023-03-20T02:07:53;9.80;1.00
14614;DHT22;7393;51.446;6.800;2023-03-20T02:10:23;9.80;99.90
14614;DHT22;7393;51.446;6.800;2023-03-20T02:12:50;9.80;99.90
14614;DHT22;7393;51.446;6.800;2023-03-20T02:15:18;9.70;99.90
14614;DHT22;7393;51.446;6.800;2023-03-20T02:17:44;9.60;99.90
14614;DHT22;7393;51.446;6.800;2023-03-20T02:20:19;9.60;99.90
14614;DHT22;7393;51.446;6.800;2023-03-20T02:23:30;9.60;1.00
14614;DHT22;7393;51.446;6.800;2023-03-20T02:29:35;9.60;1.00
14614;DHT22;7393;51.446;6.800;2023-03-20T02:32:39;9.60;1.00
14614;DHT22;7393;51.446;6.800;2023-03-20T02:38:35;9.60;1.00
14614;DHT22;7393;51.446;6.800;2023-03-20T02:41:08;9.50;1.00
14614;DHT22;7393;51.446;6.800;2023-03-20T02:43:42;9.50;1.00
14614;DHT22;7393;51.446;6.800;2023-03-20T02:46:12;9.50;1.00
14614;DHT22;7393;51.446;6.800;2023-03-20T02:48:47;9.60;99.90
14614;DHT22;7393;51.446;6.800;2023-03-20T02:51:20;9.50;99.90
14614;DHT22;7393;51.446;6.800;2023-03-20T02:53:53;9.50;99.90
14614;DHT22;7393;51.446;6.800;2023-03-20T02:56:24;9.50;99.90
14614;DHT22;7393;51.446;6.800;2023-03-20T02:58:59;9.60;1.00
14614;DHT22;7393;51.446;6.800;2023-03-20T03:01:31;9.60;1.00
14614;DHT22;7393;51.446;6.800;2023-03-20T03:04:02;9.60;99.90
14614;DHT22;7393;51.446;6.800;2023-03-20T03:06:33;9.60;99.90
14614;DHT22;7393;51.446;6.800;2023-03-20T03:09:06;9.60;99.90
14614;DHT22;7393;51.446;6.800;2023-03-20T03:11:39;9.60;99.90
14614;DHT22;7393;51.446;6.800;2023-03-20T03:14:14;9.60;1.00
14614;DHT22;7393;51.446;6.800;2023-03-20T03:16:44;9.60;99.90
14614;DHT22;7393;51.446;6.800;2023-03-20T03:19:13;9.60;99.90
14614;DHT22;7393;51.446;6.800;2023-03-20T03:21:44;9.60;99.90
14614;DHT22;7393;51.446;6.800;2023-03-20T03:24:26;9.60;1.00
14614;DHT22;7393;51.446;6.800;2023-03-20T03:26:55;9.60;1.00
14614;DHT22;7393;51.446;6.800;2023-03-20T03:29:26;9.60;1.00
14614;DHT22;7393;51.446;6.800;2023-03-20T03:31:54;9.60;99.90
14614;DHT22;7393;51.446;6.800;2023-03-20T03:34:22;9.60;1.00
14614;DHT22;7393;51.446;6.800;2023-03-20T03:36:54;9.60;1.00
14614;DHT22;7393;51.446;6.800;2023-03-20T03:39:34;9.60;1.00
14614;DHT22;7393;51.446;6.800;2023-03-20T03:42:05;9.60;1.00
14614;DHT22;7393;51.446;6.800;2023-03-20T03:44:39;9.70;1.00
14614;DHT22;7393;51.446;6.800;2023-03-20T03:47:10;9.60;1.00
14614;DHT22;7393;51.446;6.800;2023-03-20T03:49:41;9.60;1.00
14614;DHT22;7393;51.446;6.800;2023-03-20T03:52:12;9.70;1.00
14614;DHT22;7393;51.446;6.800;2023-03-20T03:54:47;9.60;1.00
14614;DHT22;7393;51.446;6.800;2023-03-20T03:57:17;9.60;1.00
14614;DHT22;7393;51.446;6.800;2023-03-20T03:59:48;9.60;99.90
14614;DHT22;7393;51.446;6.800;2023-03-20T04:02:16;9.50;99.90
14614;DHT22;7393;51.446;6.800;2023-03-20T04:04:47;9.50;99.90
14614;DHT22;7393;51.446;6.800;2023-03-20T04:07:15;9.50;1.00
14614;DHT22;7393;51.446;6.800;2023-03-20T04:09:43;9.50;1.00
14614;DHT22;7393;51.446;6.800;2023-03-20T04:12:33;9.40;1.00
14614;DHT22;7393;51.446;6.800;2023-03-20T04:15:01;9.50;1.00
14614;DHT22;7393;51.446;6.800;2023-03-20T04:17:28;9.40;1.20
14614;DHT22;7393;51.446;6.800;2023-03-20T04:19:54;9.40;1.00
14614;DHT22;7393;51.446;6.800;2023-03-20T04:22:22;9.40;28.20
14614;DHT22;7393;51.446;6.800;2023-03-20T04:24:50;9.40;99.90
14614;DHT22;7393;51.446;6.800;2023-03-20T04:27:17;9.40;99.90
14614;DHT22;7393;51.446;6.800;2023-03-20T04:29:44;9.40;1.00
14614;DHT22;7393;51.446;6.800;2023-03-20T04:32:11;9.40;1.00
14614;DHT22;7393;51.446;6.800;2023-03-20T04:34:38;9.40;99.90
14614;DHT22;7393;51.446;6.800;2023-03-20T04:37:05;9.40;1.00
14614;DHT22;7393;51.446;6.800;2023-03-20T04:39:33;9.40;1.00
14614;DHT22;7393;51.446;6.800;2023-03-20T04:42:01;9.30;99.90
14614;DHT22;7393;51.446;6.800;2023-03-20T04:44:29;9.30;99.90
14614;DHT22;7393;51.446;6.800;2023-03-20T04:46:55;9.30;1.00
14614;DHT22;7393;51.446;6.800;2023-03-20T04:49:22;9.30;1.00
14614;DHT22;7393;51.446;6.800;2023-03-20T04:51:50;9.30;99.90
14614;DHT22;7393;51.446;6.800;2023-03-20T04:54:17;9.30;12.90
14614;DHT22;7393;51.446;6.800;2023-03-20T04:56:44;9.30;1.00
14614;DHT22;7393;51.446;6.800;2023-03-20T04:59:12;9.30;1.00
14614;DHT22;7393;51.446;6.800;2023-03-20T05:01:39;9.30;1.00
14614;DHT22;7393;51.446;6.800;2023-03-20T05:04:05;9.30;1.00
14614;DHT22;7393;51.446;6.800;2023-03-20T05:06:33;9.30;1.00
14614;DHT22;7393;51.446;6.800;2023-03-20T05:09:00;9.30;1.00
14614;DHT22;7393;51.446;6.800;2023-03-20T05:11:27;9.30;1.00
14614;DHT22;7393;51.446;6.800;2023-03-20T05:13:54;9.20;91.80
14614;DHT22;7393;51.446;6.800;2023-03-20T05:16:22;9.20;99.90
14614;DHT22;7393;51.446;6.800;2023-03-20T05:18:49;9.20;1.00
14614;DHT22;7393;51.446;6.800;2023-03-20T05:21:16;9.20;1.00
14614;DHT22;7393;51.446;6.800;2023-03-20T05:23:43;9.20;99.90
14614;DHT22;7393;51.446;6.800;2023-03-20T05:26:10;9.10;1.00
14614;DHT22;7393;51.446;6.800;2023-03-20T05:28:37;9.10;1.00
14614;DHT22;7393;51.446;6.800;2023-03-20T05:31:04;9.10;1.00
14614;DHT22;7393;51.446;6.800;2023-03-20T05:33:32;9.10;1.00
14614;DHT22;7393;51.446;6.800;2023-03-20T05:35:59;9.00;99.90
14614;DHT22;7393;51.446;6.800;2023-03-20T05:38:26;9.10;1.00
14614;DHT22;7393;51.446;6.800;2023-03-20T05:40:55;9.00;1.00
14614;DHT22;7393;51.446;6.800;2023-03-20T05:43:23;9.00;1.00
14614;DHT22;7393;51.446;6.800;2023-03-20T05:45:49;9.00;99.90
14614;DHT22;7393;51.446;6.800;2023-03-20T05:48:16;9.00;99.90
14614;DHT22;7393;51.446;6.800;2023-03-20T05:50:44;9.00;1.00
14614;DHT22;7393;51.446;6.800;2023-03-20T05:53:11;8.90;1.00
14614;DHT22;7393;51.446;6.800;2023-03-20T05:55:38;8.90;55.80
14614;DHT22;7393;51.446;6.800;2023-03-20T05:58:06;8.90;99.90
14614;DHT22;7393;51.446;6.800;2023-03-20T06:00:32;8.90;99.90
14614;DHT22;7393;51.446;6.800;2023-03-20T06:02:59;8.90;99.90
14614;DHT22;7393;51.446;6.800;2023-03-20T06:05:26;8.90;99.90
14614;DHT22;7393;51.446;6.800;2023-03-20T06:07:54;8.90;24.70
14614;DHT22;7393;51.446;6.800;2023-03-20T06:10:21;8.90;1.00
14614;DHT22;7393;51.446;6.800;2023-03-20T06:12:48;8.90;26.40
14614;DHT22;7393;51.446;6.800;2023-03-20T06:15:15;8.90;1.00
14614;DHT22;7393;51.446;6.800;2023-03-20T06:17:42;8.80;1.00
14614;DHT22;7393;51.446;6.800;2023-03-20T06:20:10;8.80;1.00
14614;DHT22;7393;51.446;6.800;2023-03-20T06:22:37;8.80;1.00
14614;DHT22;7393;51.446;6.800;2023-03-20T06:25:06;8.80;99.90
14614;DHT22;7393;51.446;6.800;2023-03-20T06:27:33;8.80;1.00
14614;DHT22;7393;51.446;6.800;2023-03-20T06:30:00;8.90;51.00
14614;DHT22;7393;51.446;6.800;2023-03-20T06:32:26;8.80;1.00
14614;DHT22;7393;51.446;6.800;2023-03-20T06:34:53;8.80;1.00
14614;DHT22;7393;51.446;6.800;2023-03-20T06:37:20;8.80;7.10
14614;DHT22;7393;51.446;6.800;2023-03-20T06:39:47;8.80;1.00
14614;DHT22;7393;51.446;6.800;2023-03-20T06:42:15;8.80;55.70
14614;DHT22;7393;51.446;6.800;2023-03-20T06:44:43;8.90;99.90
14614;DHT22;7393;51.446;6.800;2023-03-20T06:47:09;8.90;78.80
14614;DHT22;7393;51.446;6.800;2023-03-20T06:49:36;8.90;1.00
14614;DHT22;7393;51.446;6.800;2023-03-20T06:52:03;8.90;1.00
14614;DHT22;7393;51.446;6.800;2023-03-20T06:54:31;8.90;1.00
14614;DHT22;7393;51.446;6.800;2023-03-20T06:56:57;8.90;1.00
14614;DHT22;7393;51.446;6.800;2023-03-20T06:59:26;8.90;1.00
14614;DHT22;7393;51.446;6.800;2023-03-20T07:01:52;8.90;1.00
14614;DHT22;7393;51.446;6.800;2023-03-20T07:04:19;8.90;1.00
14614;DHT22;7393;51.446;6.800;2023-03-20T07:06:46;9.00;1.00
14614;DHT22;7393;51.446;6.800;2023-03-20T07:09:13;9.00;1.00
14614;DHT22;7393;51.446;6.800;2023-03-20T07:11:41;9.00;99.90
14614;DHT22;7393;51.446;6.800;2023-03-20T07:14:09;9.00;99.90
14614;DHT22;7393;51.446;6.800;2023-03-20T07:16:37;9.00;99.90
14614;DHT22;7393;51.446;6.800;2023-03-20T07:19:04;9.00;99.90
14614;DHT22;7393;51.446;6.800;2023-03-20T07:21:31;9.00;99.90
14614;DHT22;7393;51.446;6.800;2023-03-20T07:23:57;9.00;99.90
14614;DHT22;7393;51.446;6.800;2023-03-20T07:26:25;9.00;99.90
14614;DHT22;7393;51.446;6.800;2023-03-20T07:28:52;9.00;99.90
14614;DHT22;7393;51.446;6.800;2023-03-20T07:31:20;9.00;99.90
14614;DHT22;7393;51.446;6.800;2023-03-20T07:33:49;9.10;99.90
14614;DHT22;7393;51.446;6.800;2023-03-20T07:36:16;9.10;99.90
14614;DHT22;7393;51.446;6.800;2023-03-20T07:38:42;9.10;99.90
14614;DHT22;7393;51.446;6.800;2023-03-20T07:41:09;9.20;99.90
14614;DHT22;7393;51.446;6.800;2023-03-20T07:43:36;9.20;99.90
14614;DHT22;7393;51.446;6.800;2023-03-20T07:46:04;9.20;99.90
14614;DHT22;7393;51.446;6.800;2023-03-20T07:48:31;9.20;99.90
14614;DHT22;7393;51.446;6.800;2023-03-20T07:50:59;9.30;99.90
14614;DHT22;7393;51.446;6.800;2023-03-20T07:53:26;9.30;99.90
14614;DHT22;7393;51.446;6.800;2023-03-20T07:55:53;9.30;99.90
14614;DHT22;7393;51.446;6.800;2023-03-20T07:58:19;9.30;99.90
14614;DHT22;7393;51.446;6.800;2023-03-20T08:00:46;9.30;99.90
14614;DHT22;7393;51.446;6.800;2023-03-20T08:03:13;9.40;99.90
14614;DHT22;7393;51.446;6.800;2023-03-20T08:05:40;9.40;99.90
14614;DHT22;7393;51.446;6.800;2023-03-20T08:08:08;9.50;25.10
14614;DHT22;7393;51.446;6.800;2023-03-20T08:10:34;9.50;19.90
14614;DHT22;7393;51.446;6.800;2023-03-20T08:13:01;9.60;13.40
14614;DHT22;7393;51.446;6.800;2023-03-20T08:15:28;9.70;1.00
14614;DHT22;7393;51.446;6.800;2023-03-20T08:17:55;9.70;1.00
14614;DHT22;7393;51.446;6.800;2023-03-20T08:20:23;9.80;1.00
14614;DHT22;7393;51.446;6.800;2023-03-20T08:22:50;9.80;1.00
14614;DHT22;7393;51.446;6.800;2023-03-20T08:25:19;9.80;1.00
14614;DHT22;7393;51.446;6.800;2023-03-20T08:27:45;9.70;1.00
14614;DHT22;7393;51.446;6.800;2023-03-20T08:30:13;9.80;1.00
14614;DHT22;7393;51.446;6.800;2023-03-20T08:32:40;9.80;1.00
14614;DHT22;7393;51.446;6.800;2023-03-20T08:35:08;9.90;1.00
14614;DHT22;7393;51.446;6.800;2023-03-20T08:37:35;9.90;1.00
14614;DHT22;7393;51.446;6.800;2023-03-20T08:40:04;9.90;1.00
14614;DHT22;7393;51.446;6.800;2023-03-20T08:42:33;9.90;1.00
14614;DHT22;7393;51.446;6.800;2023-03-20T08:45:00;9.90;1.00
14614;DHT22;7393;51.446;6.800;2023-03-20T08:47:27;9.90;1.00
14614;DHT22;7393;51.446;6.800;2023-03-20T08:49:53;9.90;1.00
14614;DHT22;7393;51.446;6.800;2023-03-20T08:52:20;10.00;99.90
14614;DHT22;7393;51.446;6.800;2023-03-20T08:54:47;10.00;99.90
14614;DHT22;7393;51.446;6.800;2023-03-20T08:57:14;10.00;99.90
14614;DHT22;7393;51.446;6.800;2023-03-20T08:59:42;10.00;99.90
14614;DHT22;7393;51.446;6.800;2023-03-20T09:02:09;10.00;99.90
14614;DHT22;7393;51.446;6.800;2023-03-20T09:04:36;10.00;99.90
14614;DHT22;7393;51.446;6.800;2023-03-20T09:07:03;10.00;99.90
14614;DHT22;7393;51.446;6.800;2023-03-20T09:09:30;10.00;99.90
14614;DHT22;7393;51.446;6.800;2023-03-20T09:11:57;10.10;99.90
14614;DHT22;7393;51.446;6.800;2023-03-20T09:14:25;10.10;99.90
14614;DHT22;7393;51.446;6.800;2023-03-20T09:16:54;10.10;99.90
14614;DHT22;7393;51.446;6.800;2023-03-20T09:19:20;10.10;99.90
14614;DHT22;7393;51.446;6.800;2023-03-20T09:21:47;10.10;99.90
14614;DHT22;7393;51.446;6.800;2023-03-20T09:24:14;10.10;99.90
14614;DHT22;7393;51.446;6.800;2023-03-20T09:26:41;10.10;99.90
14614;DHT22;7393;51.446;6.800;2023-03-20T09:29:08;10.10;99.90
14614;DHT22;7393;51.446;6.800;2023-03-20T09:31:35;10.00;99.90
14614;DHT22;7393;51.446;6.800;2023-03-20T09:34:03;10.10;99.90
14614;DHT22;7393;51.446;6.800;2023-03-20T09:36:31;10.10;99.90
14614;DHT22;7393;51.446;6.800;2023-03-20T09:38:58;10.10;99.90
14614;DHT22;7393;51.446;6.800;2023-03-20T09:41:26;10.10;99.90
14614;DHT22;7393;51.446;6.800;2023-03-20T09:44:03;10.10;99.90
14614;DHT22;7393;51.446;6.800;2023-03-20T09:46:45;10.20;99.90
14614;DHT22;7393;51.446;6.800;2023-03-20T09:49:22;10.20;99.90
14614;DHT22;7393;51.446;6.800;2023-03-20T09:51:54;10.20;99.90
14614;DHT22;7393;51.446;6.800;2023-03-20T09:54:24;10.20;99.90
14614;DHT22;7393;51.446;6.800;2023-03-20T09:56:54;10.20;99.90
14614;DHT22;7393;51.446;6.800;2023-03-20T09:59:23;10.10;99.90
14614;DHT22;7393;51.446;6.800;2023-03-20T10:01:52;10.20;99.90
14614;DHT22;7393;51.446;6.800;2023-03-20T10:04:23;10.20;99.90
14614;DHT22;7393;51.446;6.800;2023-03-20T10:06:51;10.20;99.90
14614;DHT22;7393;51.446;6.800;2023-03-20T10:09:21;10.20;99.90
14614;DHT22;7393;51.446;6.800;2023-03-20T10:14:52;10.20;99.90
14614;DHT22;7393;51.446;6.800;2023-03-20T10:17:36;10.30;99.90
14614;DHT22;7393;51.446;6.800;2023-03-20T10:20:12;10.30;99.90
14614;DHT22;7393;51.446;6.800;2023-03-20T10:22:42;10.40;99.90
14614;DHT22;7393;51.446;6.800;2023-03-20T10:25:21;10.40;99.90
14614;DHT22;7393;51.446;6.800;2023-03-20T10:27:54;10.40;99.90
14614;DHT22;7393;51.446;6.800;2023-03-20T10:30:28;10.40;99.90
14614;DHT22;7393;51.446;6.800;2023-03-20T10:33:06;10.40;99.90
14614;DHT22;7393;51.446;6.800;2023-03-20T10:35:40;10.40;99.90
14614;DHT22;7393;51.446;6.800;2023-03-20T10:38:19;10.40;99.90
14614;DHT22;7393;51.446;6.800;2023-03-20T10:40:50;10.40;99.90
14614;DHT22;7393;51.446;6.800;2023-03-20T10:43:20;10.40;99.90
14614;DHT22;7393;51.446;6.800;2023-03-20T10:45:50;10.40;99.90
14614;DHT22;7393;51.446;6.800;2023-03-20T10:48:22;10.40;99.90
14614;DHT22;7393;51.446;6.800;2023-03-20T10:50:54;10.40;99.90
14614;DHT22;7393;51.446;6.800;2023-03-20T10:53:29;10.50;99.90
14614;DHT22;7393;51.446;6.800;2023-03-20T10:55:59;10.50;99.90
14614;DHT22;7393;51.446;6.800;2023-03-20T10:58:30;10.60;99.90
14614;DHT22;7393;51.446;6.800;2023-03-20T11:00:57;10.60;99.90
14614;DHT22;7393;51.446;6.800;2023-03-20T11:03:26;10.60;99.90
14614;DHT22;7393;51.446;6.800;2023-03-20T11:05:58;10.60;99.90
14614;DHT22;7393;51.446;6.800;2023-03-20T11:08:30;10.60;99.90
14614;DHT22;7393;51.446;6.800;2023-03-20T11:11:01;10.60;99.90
14614;DHT22;7393;51.446;6.800;2023-03-20T11:13:31;10.70;99.90
14614;DHT22;7393;51.446;6.800;2023-03-20T11:16:09;10.70;99.90
14614;DHT22;7393;51.446;6.800;2023-03-20T11:18:36;10.70;99.90
14614;DHT22;7393;51.446;6.800;2023-03-20T11:21:09;10.80;99.90
14614;DHT22;7393;51.446;6.800;2023-03-20T11:23:39;10.90;99.90
14614;DHT22;7393;51.446;6.800;2023-03-20T11:26:08;10.90;99.90
14614;DHT22;7393;51.446;6.800;2023-03-20T11:28:38;10.90;99.90
14614;DHT22;7393;51.446;6.800;2023-03-20T11:31:13;10.90;99.90
14614;DHT22;7393;51.446;6.800;2023-03-20T11:33:43;10.90;99.90
14614;DHT22;7393;51.446;6.800;2023-03-20T11:36:22;10.90;99.90
14614;DHT22;7393;51.446;6.800;2023-03-20T11:38:50;10.90;99.90
14614;DHT22;7393;51.446;6.800;2023-03-20T11:41:20;10.90;99.90
14614;DHT22;7393;51.446;6.800;2023-03-20T11:43:48;10.80;99.90
14614;DHT22;7393;51.446;6.800;2023-03-20T11:46:15;10.80;99.90
14614;DHT22;7393;51.446;6.800;2023-03-20T11:48:44;10.70;99.90
14614;DHT22;7393;51.446;6.800;2023-03-20T11:51:14;10.70;99.90
14614;DHT22;7393;51.446;6.800;2023-03-20T11:53:57;10.70;99.90
14614;DHT22;7393;51.446;6.800;2023-03-20T11:56:27;10.70;99.90
14614;DHT22;7393;51.446;6.800;2023-03-20T11:58:56;10.60;99.90
14614;DHT22;7393;51.446;6.800;2023-03-20T12:01:24;10.60;99.90
14614;DHT22;7393;51.446;6.800;2023-03-20T12:03:59;10.70;99.90
14614;DHT22;7393;51.446;6.800;2023-03-20T12:06:39;10.60;99.90
14614;DHT22;7393;51.446;6.800;2023-03-20T12:09:11;10.60;99.90
14614;DHT22;7393;51.446;6.800;2023-03-20T12:11:47;10.60;99.90
14614;DHT22;7393;51.446;6.800;2023-03-20T12:14:22;10.60;99.90
14614;DHT22;7393;51.446;6.800;2023-03-20T12:16:54;10.60;99.90
14614;DHT22;7393;51.446;6.800;2023-03-20T12:19:25;10.50;99.90
14614;DHT22;7393;51.446;6.800;2023-03-20T12:22:00;10.50;99.90
14614;DHT22;7393;51.446;6.800;2023-03-20T12:24:34;10.50;99.90
14614;DHT22;7393;51.446;6.800;2023-03-20T12:27:14;10.40;99.90
14614;DHT22;7393;51.446;6.800;2023-03-20T12:29:46;10.50;99.90
14614;DHT22;7393;51.446;6.800;2023-03-20T12:32:17;10.60;99.90
14614;DHT22;7393;51.446;6.800;2023-03-20T12:34:47;10.60;99.90
14614;DHT22;7393;51.446;6.800;2023-03-20T12:37:17;10.60;99.90
14614;DHT22;7393;51.446;6.800;2023-03-20T12:39:48;10.60;99.90
14614;DHT22;7393;51.446;6.800;2023-03-20T12:42:24;10.70;99.90
14614;DHT22;7393;51.446;6.800;2023-03-20T12:45:02;10.80;99.90
14614;DHT22;7393;51.446;6.800;2023-03-20T12:50:29;10.80;99.90
14614;DHT22;7393;51.446;6.800;2023-03-20T12:53:10;10.90;99.90
14614;DHT22;7393;51.446;6.800;2023-03-20T12:55:51;10.90;99.90
14614;DHT22;7393;51.446;6.800;2023-03-20T12:58:26;11.00;99.90
14614;DHT22;7393;51.446;6.800;2023-03-20T13:01:01;11.00;99.90
14614;DHT22;7393;51.446;6.800;2023-03-20T13:03:58;11.10;99.90
14614;DHT22;7393;51.446;6.800;2023-03-20T13:06:34;11.10;99.90
14614;DHT22;7393;51.446;6.800;2023-03-20T13:09:30;11.10;99.90
14614;DHT22;7393;51.446;6.800;2023-03-20T13:12:05;11.00;99.90
14614;DHT22;7393;51.446;6.800;2023-03-20T13:14:39;11.00;99.90
14614;DHT22;7393;51.446;6.800;2023-03-20T13:17:13;11.00;99.90
14614;DHT22;7393;51.446;6.800;2023-03-20T13:19:47;10.90;99.90
14614;DHT22;7393;51.446;6.800;2023-03-20T13:22:22;10.90;99.90
14614;DHT22;7393;51.446;6.800;2023-03-20T13:24:56;10.90;99.90
14614;DHT22;7393;51.446;6.800;2023-03-20T13:27:34;10.80;99.90
14614;DHT22;7393;51.446;6.800;2023-03-20T13:30:06;10.80;99.90
14614;DHT22;7393;51.446;6.800;2023-03-20T13:32:48;10.80;99.90
14614;DHT22;7393;51.446;6.800;2023-03-20T13:35:31;10.80;99.90
14614;DHT22;7393;51.446;6.800;2023-03-20T13:38:09;10.90;99.90
14614;DHT22;7393;51.446;6.800;2023-03-20T13:40:40;10.90;99.90
14614;DHT22;7393;51.446;6.800;2023-03-20T13:43:16;10.90;99.90
14614;DHT22;7393;51.446;6.800;2023-03-20T13:45:47;10.90;99.90
14614;DHT22;7393;51.446;6.800;2023-03-20T13:48:26;10.90;99.90
14614;DHT22;7393;51.446;6.800;2023-03-20T13:51:00;10.90;99.90
14614;DHT22;7393;51.446;6.800;2023-03-20T13:53:36;10.90;99.90
14614;DHT22;7393;51.446;6.800;2023-03-20T13:56:15;10.90;99.90
14614;DHT22;7393;51.446;6.800;2023-03-20T13:58:59;11.00;99.90
14614;DHT22;7393;51.446;6.800;2023-03-20T14:01:39;11.10;99.90
14614;DHT22;7393;51.446;6.800;2023-03-20T14:04:13;11.10;99.90
14614;DHT22;7393;51.446;6.800;2023-03-20T14:06:48;11.10;99.90
14614;DHT22;7393;51.446;6.800;2023-03-20T14:09:27;11.10;99.90
14614;DHT22;7393;51.446;6.800;2023-03-20T14:12:00;11.10;99.90
14614;DHT22;7393;51.446;6.800;2023-03-20T14:14:29;11.10;99.90
14614;DHT22;7393;51.446;6.800;2023-03-20T14:17:07;11.10;99.90
14614;DHT22;7393;51.446;6.800;2023-03-20T14:19:35;11.10;99.90
14614;DHT22;7393;51.446;6.800;2023-03-20T14:22:03;11.10;99.90
14614;DHT22;7393;51.446;6.800;2023-03-20T14:24:34;11.00;99.90
14614;DHT22;7393;51.446;6.800;2023-03-20T14:27:03;11.00;99.90
14614;DHT22;7393;51.446;6.800;2023-03-20T14:29:33;11.00;99.90
14614;DHT22;7393;51.446;6.800;2023-03-20T14:34:49;11.00;99.90
14614;DHT22;7393;51.446;6.800;2023-03-20T14:37:52;11.00;99.90
14614;DHT22;7393;51.446;6.800;2023-03-20T14:40:23;11.00;99.90
14614;DHT22;7393;51.446;6.800;2023-03-20T14:42:59;11.00;99.90
14614;DHT22;7393;51.446;6.800;2023-03-20T14:45:33;11.10;99.90
14614;DHT22;7393;51.446;6.800;2023-03-20T14:48:05;11.10;99.90
14614;DHT22;7393;51.446;6.800;2023-03-20T14:50:38;11.20;99.90
14614;DHT22;7393;51.446;6.800;2023-03-20T14:53:15;11.20;99.90
14614;DHT22;7393;51.446;6.800;2023-03-20T14:55:49;11.20;99.90
14614;DHT22;7393;51.446;6.800;2023-03-20T15:01:43;11.20;99.90
14614;DHT22;7393;51.446;6.800;2023-03-20T15:04:21;11.20;99.90
14614;DHT22;7393;51.446;6.800;2023-03-20T15:06:52;11.20;99.90
14614;DHT22;7393;51.446;6.800;2023-03-20T15:09:23;11.20;99.90
14614;DHT22;7393;51.446;6.800;2023-03-20T15:11:52;11.20;99.90
14614;DHT22;7393;51.446;6.800;2023-03-20T15:14:23;11.20;99.90
14614;DHT22;7393;51.446;6.800;2023-03-20T15:16:58;11.20;99.90
14614;DHT22;7393;51.446;6.800;2023-03-20T15:19:25;11.20;99.90
14614;DHT22;7393;51.446;6.800;2023-03-20T15:21:53;11.20;99.90
14614;DHT22;7393;51.446;6.800;2023-03-20T15:24:22;11.20;99.90
14614;DHT22;7393;51.446;6.800;2023-03-20T15:26:53;11.20;99.90
14614;DHT22;7393;51.446;6.800;2023-03-20T15:29:22;11.10;99.90
14614;DHT22;7393;51.446;6.800;2023-03-20T15:31:57;11.10;99.90
14614;DHT22;7393;51.446;6.800;2023-03-20T15:34:26;11.10;99.90
14614;DHT22;7393;51.446;6.800;2023-03-20T15:36:55;11.00;99.90
14614;DHT22;7393;51.446;6.800;2023-03-20T15:39:23;11.00;99.90
14614;DHT22;7393;51.446;6.800;2023-03-20T15:41:52;11.00;99.90
14614;DHT22;7393;51.446;6.800;2023-03-20T15:44:23;11.00;99.90
14614;DHT22;7393;51.446;6.800;2023-03-20T15:46:56;10.90;99.90
14614;DHT22;7393;51.446;6.800;2023-03-20T15:49:25;10.80;99.90
14614;DHT22;7393;51.446;6.800;2023-03-20T15:51:53;10.80;99.90
14614;DHT22;7393;51.446;6.800;2023-03-20T15:54:21;10.80;99.90
14614;DHT22;7393;51.446;6.800;2023-03-20T15:56:50;10.70;99.90
14614;DHT22;7393;51.446;6.800;2023-03-20T15:59:20;10.70;99.90
14614;DHT22;7393;51.446;6.800;2023-03-20T16:01:52;10.70;99.90
14614;DHT22;7393;51.446;6.800;2023-03-20T16:04:19;10.60;99.90
14614;DHT22;7393;51.446;6.800;2023-03-20T16:06:51;10.60;99.90
14614;DHT22;7393;51.446;6.800;2023-03-20T16:09:18;10.60;99.90
14614;DHT22;7393;51.446;6.800;2023-03-20T16:11:47;10.60;99.90
14614;DHT22;7393;51.446;6.800;2023-03-20T16:14:17;10.60;99.90
14614;DHT22;7393;51.446;6.800;2023-03-20T16:16:47;10.60;99.90
14614;DHT22;7393;51.446;6.800;2023-03-20T16:19:16;10.60;1.00
14614;DHT22;7393;51.446;6.800;2023-03-20T16:21:46;10.50;1.00
14614;DHT22;7393;51.446;6.800;2023-03-20T16:24:17;10.50;1.00
14614;DHT22;7393;51.446;6.800;2023-03-20T16:26:48;10.50;1.00
14614;DHT22;7393;51.446;6.800;2023-03-20T16:29:16;10.50;1.00
14614;DHT22;7393;51.446;6.800;2023-03-20T16:31:47;10.50;1.00
14614;DHT22;7393;51.446;6.800;2023-03-20T16:34:19;10.40;1.00
14614;DHT22;7393;51.446;6.800;2023-03-20T16:36:54;10.30;1.00